createdAt,value
2022-11-05T00:00:23.410Z,44.20
2022-11-05T00:02:49.853Z,47.00
2022-11-05T00:05:16.397Z,45.30
2022-11-05T00:07:51.659Z,47.40
2022-11-05T00:10:22.326Z,39.40
2022-11-05T00:12:49.249Z,43.70
2022-11-05T00:15:15.839Z,53.80
2022-11-05T00:17:43.044Z,43.90
2022-11-05T00:20:10.711Z,44.60
2022-11-05T00:22:37.392Z,33.50
2022-11-05T00:25:04.800Z,33.10
2022-11-05T00:27:33.494Z,32.10
2022-11-05T00:30:00.340Z,35.00
2022-11-05T00:32:26.882Z,34.10
2022-11-05T00:34:53.625Z,29.40
2022-11-05T00:37:20.170Z,30.70
2022-11-05T00:39:46.811Z,27.20
2022-11-05T00:42:13.364Z,26.80
2022-11-05T00:44:40.002Z,28.00
2022-11-05T00:47:06.540Z,27.90
2022-11-05T00:49:33.080Z,39.40
2022-11-05T00:51:59.927Z,39.30
2022-11-05T00:54:26.469Z,40.30
2022-11-05T00:56:52.904Z,40.50
2022-11-05T00:59:19.352Z,37.40
2022-11-05T01:01:46.363Z,45.90
2022-11-05T01:04:13.160Z,44.10
2022-11-05T01:06:39.590Z,41.30
2022-11-05T01:09:06.068Z,35.90
2022-11-05T01:11:33.033Z,33.10
2022-11-05T01:14:09.995Z,42.20
2022-11-05T01:16:37.622Z,39.60
2022-11-05T01:19:06.174Z,48.00
2022-11-05T01:21:32.761Z,47.50
2022-11-05T01:23:59.802Z,49.30
2022-11-05T01:26:26.780Z,42.40
2022-11-05T01:28:55.206Z,46.80
2022-11-05T01:31:23.109Z,39.30
2022-11-05T01:33:50.549Z,35.90
2022-11-05T01:36:17.625Z,38.30
2022-11-05T01:38:44.369Z,35.90
2022-11-05T01:41:11.530Z,39.10
2022-11-05T01:44:04.178Z,39.40
2022-11-05T01:46:43.825Z,39.20
2022-11-05T01:49:33.685Z,41.20
2022-11-05T01:52:03.860Z,42.80
2022-11-05T01:54:32.965Z,41.00
2022-11-05T01:57:04.342Z,42.00
2022-11-05T01:59:38.823Z,33.40
2022-11-05T02:02:07.792Z,29.80
2022-11-05T02:04:38.676Z,36.10
2022-11-05T02:07:07.985Z,33.30
2022-11-05T02:09:51.256Z,31.30
2022-11-05T02:12:19.163Z,27.70
2022-11-05T02:14:45.590Z,29.20
2022-11-05T02:17:37.566Z,33.40
2022-11-05T02:20:25.689Z,40.00
2022-11-05T02:23:01.641Z,38.20
2022-11-05T02:26:02.489Z,34.50
2022-11-05T02:28:56.782Z,44.10
2022-11-05T02:31:37.859Z,32.00
2022-11-05T02:34:26.175Z,71.00
2022-11-05T02:37:07.185Z,39.10
2022-11-05T02:40:11.171Z,36.70
2022-11-05T02:42:43.068Z,30.40
2022-11-05T02:45:35.620Z,35.50
2022-11-05T02:48:35.341Z,34.60
2022-11-05T02:51:27.278Z,37.70
2022-11-05T02:54:02.116Z,36.00
2022-11-05T02:56:43.010Z,41.10
2022-11-05T02:59:09.524Z,38.50
2022-11-05T03:01:37.678Z,34.00
2022-11-05T03:04:08.510Z,31.90
2022-11-05T03:06:55.879Z,30.70
2022-11-05T03:09:44.123Z,33.90
2022-11-05T03:12:13.643Z,48.90
2022-11-05T03:15:08.066Z,44.20
2022-11-05T03:18:01.009Z,40.40
2022-11-05T03:20:35.932Z,36.60
2022-11-05T03:23:24.587Z,35.50
2022-11-05T03:26:11.652Z,38.10
2022-11-05T03:28:42.987Z,39.20
2022-11-05T03:33:40.811Z,31.50
2022-11-05T03:36:13.650Z,35.30
2022-11-05T03:38:43.776Z,29.70
2022-11-05T03:41:13.777Z,31.80
2022-11-05T03:43:45.253Z,33.90
2022-11-05T03:46:28.264Z,29.70
2022-11-05T03:48:57.767Z,27.00
2022-11-05T03:51:59.566Z,29.80
2022-11-05T03:54:26.411Z,30.20
2022-11-05T03:57:08.870Z,33.40
2022-11-05T03:59:42.434Z,33.60
2022-11-05T04:02:10.846Z,31.70
2022-11-05T04:04:38.175Z,31.90
2022-11-05T04:07:05.050Z,33.10
2022-11-05T04:09:31.974Z,34.40
2022-11-05T04:11:58.615Z,31.80
2022-11-05T04:14:25.570Z,31.90
2022-11-05T04:16:52.667Z,31.10
2022-11-05T04:19:23.700Z,34.00
2022-11-05T04:21:52.668Z,34.60
2022-11-05T04:24:19.478Z,32.00
2022-11-05T04:26:46.111Z,32.10
2022-11-05T04:29:13.182Z,34.90
2022-11-05T04:31:39.861Z,34.00
2022-11-05T04:34:09.126Z,30.50
2022-11-05T04:36:35.716Z,32.40
2022-11-05T04:39:02.449Z,36.70
2022-11-05T04:41:29.187Z,37.40
2022-11-05T04:43:55.736Z,36.70
2022-11-05T04:46:22.168Z,38.80
2022-11-05T04:48:48.870Z,39.70
2022-11-05T04:51:15.551Z,36.10
2022-11-05T04:53:41.984Z,41.10
2022-11-05T04:56:12.659Z,45.60
2022-11-05T04:58:41.018Z,46.80
2022-11-05T05:01:15.330Z,41.00
2022-11-05T05:03:42.601Z,37.60
2022-11-05T05:06:09.615Z,38.80
2022-11-05T05:08:36.196Z,43.70
2022-11-05T05:11:05.192Z,52.20
2022-11-05T05:13:31.835Z,44.90
2022-11-05T05:15:58.975Z,50.50
2022-11-05T05:18:25.885Z,52.50
2022-11-05T05:20:58.043Z,54.00
2022-11-05T05:23:24.554Z,52.40
2022-11-05T05:25:51.095Z,51.10
2022-11-05T05:28:17.536Z,51.60
2022-11-05T05:30:44.183Z,56.00
2022-11-05T05:33:11.122Z,55.00
2022-11-05T05:35:37.878Z,63.40
2022-11-05T05:38:04.419Z,58.90
2022-11-05T05:40:30.965Z,60.40
2022-11-05T05:42:57.463Z,61.30
2022-11-05T05:45:23.943Z,62.80
2022-11-05T05:47:50.587Z,62.20
2022-11-05T05:50:17.043Z,61.20
2022-11-05T05:52:43.471Z,60.20
2022-11-05T05:55:10.207Z,58.30
2022-11-05T05:57:36.651Z,59.00
2022-11-05T06:00:04.900Z,59.70
2022-11-05T06:02:31.559Z,55.90
2022-11-05T06:04:58.516Z,61.40
2022-11-05T06:07:25.056Z,57.30
2022-11-05T06:09:51.699Z,57.00
2022-11-05T06:12:18.159Z,54.90
2022-11-05T06:14:44.685Z,53.80
2022-11-05T06:17:11.214Z,47.60
2022-11-05T06:19:37.666Z,49.30
2022-11-05T06:22:04.212Z,45.00
2022-11-05T06:24:30.768Z,46.70
2022-11-05T06:26:57.597Z,47.10
2022-11-05T06:29:24.143Z,46.80
2022-11-05T06:31:50.680Z,44.60
2022-11-05T06:34:17.216Z,34.30
2022-11-05T06:36:43.961Z,32.10
2022-11-05T06:39:11.370Z,30.40
2022-11-05T06:41:56.968Z,29.10
2022-11-05T06:44:24.368Z,32.10
2022-11-05T06:46:50.911Z,30.00
2022-11-05T06:49:17.347Z,28.00
2022-11-05T06:51:43.889Z,23.10
2022-11-05T06:54:10.421Z,20.90
2022-11-05T06:56:36.975Z,15.70
2022-11-05T06:59:03.512Z,13.80
2022-11-05T07:01:30.056Z,18.10
2022-11-05T07:03:56.870Z,16.20
2022-11-05T07:06:23.468Z,19.10
2022-11-05T07:08:49.928Z,16.30
2022-11-05T07:11:16.534Z,16.70
2022-11-05T07:13:43.001Z,13.90
2022-11-05T07:16:09.549Z,12.70
2022-11-05T07:18:36.398Z,14.40
2022-11-05T07:21:03.606Z,14.00
2022-11-05T07:23:30.098Z,14.50
2022-11-05T07:25:56.584Z,13.90
2022-11-05T07:28:23.164Z,12.00
2022-11-05T07:30:49.582Z,15.90
2022-11-05T07:33:16.056Z,13.20
2022-11-05T07:35:42.851Z,13.80
2022-11-05T07:38:09.602Z,11.90
2022-11-05T07:40:36.103Z,20.40
2022-11-05T07:43:02.680Z,15.60
2022-11-05T07:45:31.164Z,13.20
2022-11-05T07:48:00.858Z,14.50
2022-11-05T07:50:30.345Z,11.70
2022-11-05T07:53:07.386Z,10.80
2022-11-05T07:55:34.636Z,11.50
2022-11-05T07:58:01.197Z,9.90
2022-11-05T08:00:28.507Z,12.50
2022-11-05T08:03:12.379Z,10.20
2022-11-05T08:05:41.293Z,8.60
2022-11-05T08:08:09.565Z,9.70
2022-11-05T08:10:37.387Z,10.90
2022-11-05T08:13:05.450Z,11.40
2022-11-05T08:15:32.563Z,10.10
2022-11-05T08:18:00.719Z,8.60
2022-11-05T08:20:28.030Z,7.40
2022-11-05T08:22:54.863Z,6.50
2022-11-05T08:25:21.402Z,7.10
2022-11-05T08:27:47.953Z,7.10
2022-11-05T08:30:14.472Z,7.20
2022-11-05T08:32:41.012Z,5.60
2022-11-05T08:35:07.863Z,8.00
2022-11-05T08:37:34.398Z,7.30
2022-11-05T08:40:00.897Z,7.00
2022-11-05T08:42:27.541Z,10.00
2022-11-05T08:44:53.954Z,9.60
2022-11-05T08:47:20.462Z,11.40
2022-11-05T08:49:46.886Z,11.50
2022-11-05T08:52:13.438Z,13.00
2022-11-05T08:54:40.230Z,10.30
2022-11-05T08:57:06.689Z,11.00
2022-11-05T08:59:33.277Z,13.10
2022-11-05T09:02:02.029Z,12.90
2022-11-05T09:04:28.702Z,10.20
2022-11-05T09:06:55.467Z,10.20
2022-11-05T09:09:22.177Z,9.90
2022-11-05T09:12:11.257Z,12.00
2022-11-05T09:14:35.253Z,10.50
2022-11-05T09:17:01.781Z,9.10
2022-11-05T09:19:28.246Z,9.40
2022-11-05T09:21:54.679Z,8.80
2022-11-05T09:24:21.197Z,15.10
2022-11-05T09:26:47.881Z,9.80
2022-11-05T09:29:14.723Z,8.70
2022-11-05T09:31:41.741Z,9.80
2022-11-05T09:34:08.281Z,8.10
2022-11-05T09:36:34.923Z,7.70
2022-11-05T09:39:01.353Z,9.30
2022-11-05T09:41:36.308Z,11.00
2022-11-05T09:44:14.007Z,10.90
2022-11-05T09:46:49.765Z,8.40
2022-11-05T09:49:41.292Z,6.60
2022-11-05T09:54:47.081Z,8.00
2022-11-05T09:57:20.104Z,8.00
2022-11-05T09:59:51.033Z,7.60
2022-11-05T10:02:42.733Z,9.20
2022-11-05T10:05:12.271Z,10.10
2022-11-05T10:07:54.455Z,9.50
2022-11-05T10:10:23.881Z,9.70
2022-11-05T10:12:54.720Z,10.80
2022-11-05T10:15:27.607Z,11.10
2022-11-05T10:17:59.706Z,9.50
2022-11-05T10:20:37.684Z,10.50
2022-11-05T10:23:19.213Z,8.10
2022-11-05T10:26:07.499Z,6.90
2022-11-05T10:28:35.138Z,7.00
2022-11-05T10:31:06.157Z,6.60
2022-11-05T10:33:45.918Z,8.80
2022-11-05T10:36:20.871Z,12.80
2022-11-05T10:38:47.576Z,9.80
2022-11-05T10:41:26.270Z,6.30
2022-11-05T10:44:05.331Z,6.30
2022-11-05T10:46:44.283Z,6.60
2022-11-05T10:49:22.885Z,13.00
2022-11-05T10:51:55.752Z,7.90
2022-11-05T10:54:26.970Z,12.10
2022-11-05T10:59:25.846Z,12.80
2022-11-05T11:01:58.868Z,14.50
2022-11-05T11:04:30.334Z,16.20
2022-11-05T11:06:59.905Z,9.40
2022-11-05T11:09:36.484Z,11.60
2022-11-05T11:12:15.100Z,10.20
2022-11-05T11:14:41.640Z,11.20
2022-11-05T11:17:30.066Z,9.80
2022-11-05T11:20:32.482Z,10.20
2022-11-05T11:23:15.248Z,10.00
2022-11-05T11:25:46.758Z,14.30
2022-11-05T11:28:27.366Z,26.90
2022-11-05T11:31:15.719Z,31.60
2022-11-05T11:33:48.420Z,27.00
2022-11-05T11:36:18.614Z,10.60
2022-11-05T11:38:46.153Z,11.70
2022-11-05T11:41:31.654Z,14.80
2022-11-05T11:44:09.958Z,16.60
2022-11-05T11:46:36.847Z,9.10
2022-11-05T11:49:06.118Z,7.80
2022-11-05T11:51:36.535Z,9.10
2022-11-05T11:54:05.038Z,9.40
2022-11-05T11:56:43.461Z,7.90
2022-11-05T11:59:40.595Z,8.20
2022-11-05T12:02:38.284Z,8.80
2022-11-05T12:05:11.075Z,8.10
2022-11-05T12:07:48.681Z,9.30
2022-11-05T12:10:36.726Z,11.20
2022-11-05T12:13:21.598Z,13.30
2022-11-05T12:15:57.761Z,12.90
2022-11-05T12:18:53.593Z,10.10
2022-11-05T12:21:41.052Z,12.60
2022-11-05T12:24:29.479Z,11.50
2022-11-05T12:27:22.340Z,11.10
2022-11-05T12:29:59.638Z,11.90
2022-11-05T12:32:36.927Z,15.50
2022-11-05T12:35:27.945Z,16.70
2022-11-05T12:38:06.473Z,13.50
2022-11-05T12:41:01.270Z,11.90
2022-11-05T12:43:50.859Z,12.90
2022-11-05T12:46:37.662Z,17.00
2022-11-05T12:49:24.378Z,17.60
2022-11-05T12:52:07.303Z,18.00
2022-11-05T12:54:39.693Z,16.10
2022-11-05T12:57:11.907Z,16.50
2022-11-05T13:00:13.938Z,16.00
2022-11-05T13:02:58.689Z,18.50
2022-11-05T13:05:36.598Z,15.40
2022-11-05T13:08:18.506Z,18.90
2022-11-05T13:10:54.260Z,24.50
2022-11-05T13:13:45.588Z,25.90
2022-11-05T13:16:35.024Z,26.50
2022-11-05T13:19:17.481Z,22.20
2022-11-05T13:21:50.083Z,15.20
2022-11-05T13:24:22.528Z,17.20
2022-11-05T13:27:07.131Z,13.80
2022-11-05T13:29:53.470Z,15.30
2022-11-05T13:32:32.327Z,16.30
2022-11-05T13:35:02.242Z,15.70
2022-11-05T13:37:34.211Z,14.60
2022-11-05T13:40:07.402Z,16.90
2022-11-05T13:42:44.635Z,19.30
2022-11-05T13:45:17.377Z,19.30
2022-11-05T13:47:50.172Z,21.20
2022-11-05T13:50:38.007Z,18.80
2022-11-05T13:53:31.993Z,25.00
2022-11-05T13:56:33.452Z,30.00
2022-11-05T13:59:34.196Z,25.30
2022-11-05T14:02:05.910Z,22.20
2022-11-05T14:04:39.915Z,18.20
2022-11-05T14:07:31.628Z,16.10
2022-11-05T14:10:01.937Z,19.60
2022-11-05T14:12:35.861Z,14.80
2022-11-05T14:15:16.031Z,34.70
2022-11-05T14:18:03.065Z,12.20
2022-11-05T14:20:32.232Z,27.10
2022-11-05T14:23:40.854Z,21.80
2022-11-05T14:26:20.499Z,51.30
2022-11-05T14:28:50.012Z,32.60
2022-11-05T14:31:19.336Z,26.00
2022-11-05T14:33:55.553Z,26.30
2022-11-05T14:36:21.913Z,22.50
2022-11-05T14:38:51.441Z,23.30
2022-11-05T14:41:19.447Z,21.60
2022-11-05T14:43:57.829Z,33.20
2022-11-05T14:46:25.133Z,46.60
2022-11-05T14:48:58.604Z,41.80
2022-11-05T14:51:35.930Z,41.40
2022-11-05T14:54:20.852Z,74.30
2022-11-05T14:57:05.930Z,40.50
2022-11-05T14:59:35.138Z,37.80
2022-11-05T15:02:09.371Z,49.20
2022-11-05T15:04:38.369Z,50.50
2022-11-05T15:07:04.900Z,32.80
2022-11-05T15:09:40.451Z,40.20
2022-11-05T15:12:32.621Z,37.50
2022-11-05T15:15:02.002Z,33.80
2022-11-05T15:17:38.880Z,35.80
2022-11-05T15:20:15.082Z,41.70
2022-11-05T15:22:45.033Z,40.70
2022-11-05T15:25:19.091Z,44.40
2022-11-05T15:28:01.411Z,50.20
2022-11-05T15:30:28.040Z,47.20
2022-11-05T15:32:54.586Z,50.80
2022-11-05T15:35:27.388Z,56.70
2022-11-05T15:38:01.779Z,70.70
2022-11-05T15:40:32.336Z,62.70
2022-11-05T15:43:16.277Z,53.80
2022-11-05T15:45:43.847Z,56.50
2022-11-05T15:48:16.086Z,48.70
2022-11-05T15:50:42.707Z,45.00
2022-11-05T15:53:44.235Z,40.70
2022-11-05T15:56:11.622Z,46.80
2022-11-05T15:58:53.170Z,49.80
2022-11-05T16:01:22.763Z,57.90
2022-11-05T16:03:52.697Z,52.80
2022-11-05T16:06:19.446Z,56.60
2022-11-05T16:08:48.653Z,58.70
2022-11-05T16:11:24.798Z,61.00
2022-11-05T16:13:52.278Z,67.80
2022-11-05T16:16:18.717Z,63.80
2022-11-05T16:18:45.479Z,73.00
2022-11-05T16:21:20.900Z,68.10
2022-11-05T16:23:57.796Z,70.80
2022-11-05T16:27:02.200Z,66.60
2022-11-05T16:29:26.922Z,61.10
2022-11-05T16:31:56.433Z,64.60
2022-11-05T16:34:38.133Z,55.60
2022-11-05T16:37:07.029Z,57.10
2022-11-05T16:39:33.874Z,55.50
2022-11-05T16:42:00.736Z,54.60
2022-11-05T16:44:27.216Z,53.70
2022-11-05T16:46:53.866Z,55.20
2022-11-05T16:49:20.655Z,49.60
2022-11-05T16:51:47.195Z,53.50
2022-11-05T16:54:13.738Z,51.30
2022-11-05T16:56:40.279Z,52.50
2022-11-05T16:59:08.860Z,51.30
2022-11-05T17:01:40.441Z,50.60
2022-11-05T17:04:11.209Z,50.70
2022-11-05T17:06:37.715Z,52.70
2022-11-05T17:09:04.364Z,53.50
2022-11-05T17:11:30.898Z,53.20
2022-11-05T17:13:57.303Z,60.30
2022-11-05T17:16:23.771Z,77.80
2022-11-05T17:18:50.412Z,103.70
2022-11-05T17:21:16.888Z,113.10
2022-11-05T17:23:43.497Z,88.30
2022-11-05T17:26:12.340Z,73.30
2022-11-05T17:28:40.060Z,89.40
2022-11-05T17:31:09.684Z,96.50
2022-11-05T17:33:36.314Z,109.10
2022-11-05T17:36:11.372Z,93.10
2022-11-05T17:38:37.895Z,91.90
2022-11-05T17:41:15.594Z,88.30
2022-11-05T17:43:42.962Z,103.60
2022-11-05T17:46:12.367Z,91.50
2022-11-05T17:48:39.833Z,91.10
2022-11-05T17:51:11.184Z,75.40
2022-11-05T17:56:11.912Z,75.30
2022-11-05T17:58:39.846Z,63.20
2022-11-05T18:01:08.552Z,78.40
2022-11-05T18:03:35.354Z,64.30
2022-11-05T18:06:06.334Z,71.60
2022-11-05T18:08:33.357Z,77.40
2022-11-05T18:10:59.878Z,75.40
2022-11-05T18:13:26.517Z,85.00
2022-11-05T18:15:54.417Z,80.70
2022-11-05T18:18:22.136Z,74.10
2022-11-05T18:20:48.615Z,76.70
2022-11-05T18:23:15.461Z,79.80
2022-11-05T18:25:43.186Z,84.60
2022-11-05T18:28:09.890Z,77.10
2022-11-05T18:30:38.578Z,74.80
2022-11-05T18:33:05.156Z,70.20
2022-11-05T18:35:31.574Z,73.00
2022-11-05T18:37:58.097Z,61.50
2022-11-05T18:40:24.675Z,70.20
2022-11-05T18:42:51.320Z,68.80
2022-11-05T18:45:17.829Z,68.90
2022-11-05T18:47:44.369Z,71.90
2022-11-05T18:50:10.912Z,70.70
2022-11-05T18:52:37.866Z,80.00
2022-11-05T18:55:05.370Z,84.70
2022-11-05T18:57:33.911Z,79.60
2022-11-05T19:00:00.560Z,114.80
2022-11-05T19:02:27.175Z,72.50
2022-11-05T19:05:14.391Z,71.20
2022-11-05T19:07:40.450Z,59.70
2022-11-05T19:10:07.926Z,59.70
2022-11-05T19:12:34.688Z,61.60
2022-11-05T19:15:02.919Z,68.20
2022-11-05T19:17:32.766Z,81.30
2022-11-05T19:19:59.408Z,82.60
2022-11-05T19:22:26.283Z,80.50
2022-11-05T19:24:53.094Z,78.20
2022-11-05T19:27:20.359Z,75.50
2022-11-05T19:29:47.513Z,81.30
2022-11-05T19:32:14.446Z,78.20
2022-11-05T19:34:41.002Z,81.00
2022-11-05T19:37:08.260Z,82.70
2022-11-05T19:39:36.135Z,83.00
2022-11-05T19:42:03.906Z,95.60
2022-11-05T19:44:30.751Z,84.70
2022-11-05T19:46:57.681Z,51.10
2022-11-05T19:49:24.545Z,43.10
2022-11-05T19:51:51.066Z,29.20
2022-11-05T19:54:17.620Z,29.30
2022-11-05T19:56:44.104Z,26.40
2022-11-05T19:59:11.854Z,24.40
2022-11-05T20:01:38.706Z,22.80
2022-11-05T20:04:05.660Z,22.60
2022-11-05T20:06:36.431Z,26.60
2022-11-05T20:09:20.981Z,23.20
2022-11-05T20:11:49.142Z,27.00
2022-11-05T20:14:15.885Z,26.10
2022-11-05T20:16:42.667Z,25.20
2022-11-05T20:19:13.095Z,26.50
2022-11-05T20:21:39.864Z,24.70
2022-11-05T20:24:07.905Z,27.30
2022-11-05T20:26:34.529Z,27.20
2022-11-05T20:29:01.690Z,26.00
2022-11-05T20:31:28.640Z,25.60
2022-11-05T20:33:55.383Z,27.10
2022-11-05T20:36:24.074Z,24.60
2022-11-05T20:38:56.384Z,25.60
2022-11-05T20:41:24.195Z,24.30
2022-11-05T20:43:51.587Z,25.90
2022-11-05T20:46:20.835Z,25.80
2022-11-05T20:48:47.860Z,26.70
2022-11-05T20:51:17.415Z,25.80
2022-11-05T20:53:44.306Z,27.30
2022-11-05T20:56:19.636Z,25.00
2022-11-05T20:58:46.651Z,32.10
2022-11-05T21:01:14.162Z,26.80
2022-11-05T21:03:40.821Z,26.70
2022-11-05T21:06:07.678Z,41.30
2022-11-05T21:08:35.130Z,32.50
2022-11-05T21:11:02.291Z,26.90
2022-11-05T21:13:29.639Z,32.30
2022-11-05T21:15:59.269Z,31.30
2022-11-05T21:18:28.368Z,37.30
2022-11-05T21:20:55.264Z,35.00
2022-11-05T21:23:21.883Z,30.30
2022-11-05T21:25:48.400Z,34.10
2022-11-05T21:28:16.355Z,36.60
2022-11-05T21:30:44.978Z,34.70
2022-11-05T21:33:13.145Z,35.40
2022-11-05T21:35:41.382Z,32.30
2022-11-05T21:38:07.861Z,30.30
2022-11-05T21:40:34.499Z,32.00
2022-11-05T21:43:01.058Z,27.70
2022-11-05T21:45:27.889Z,29.20
2022-11-05T21:47:54.440Z,26.50
2022-11-05T21:50:22.172Z,31.60
2022-11-05T21:52:48.743Z,26.80
2022-11-05T21:55:15.696Z,27.20
2022-11-05T21:57:42.648Z,30.70
2022-11-05T22:00:10.987Z,27.30
2022-11-05T22:02:37.695Z,28.30
2022-11-05T22:05:05.612Z,29.60
2022-11-05T22:07:39.076Z,28.90
2022-11-05T22:10:13.312Z,29.50
2022-11-05T22:12:43.190Z,35.00
2022-11-05T22:15:10.246Z,28.70
2022-11-05T22:17:37.198Z,29.30
2022-11-05T22:20:05.477Z,28.30
2022-11-05T22:22:31.970Z,30.60
2022-11-05T22:24:58.458Z,28.40
2022-11-05T22:27:24.943Z,30.50
2022-11-05T22:29:51.945Z,31.00
2022-11-05T22:32:19.005Z,33.60
2022-11-05T22:34:47.277Z,33.30
2022-11-05T22:37:13.834Z,31.50
2022-11-05T22:39:40.578Z,31.20
2022-11-05T22:42:08.747Z,33.50
2022-11-05T22:44:36.640Z,33.70
2022-11-05T22:47:03.396Z,35.50
2022-11-05T22:49:29.899Z,33.80
2022-11-05T22:51:56.646Z,32.30
2022-11-05T22:54:23.189Z,33.90
2022-11-05T22:56:49.835Z,32.90
2022-11-05T22:59:16.905Z,35.00
2022-11-05T23:01:45.406Z,32.60
2022-11-05T23:04:13.964Z,33.50
2022-11-05T23:06:41.016Z,33.00
2022-11-05T23:09:13.903Z,33.50
2022-11-05T23:11:42.852Z,33.20
2022-11-05T23:14:13.708Z,32.00
2022-11-05T23:16:41.383Z,38.30
2022-11-05T23:19:09.719Z,35.40
2022-11-05T23:21:36.282Z,40.80
2022-11-05T23:24:02.769Z,32.10
2022-11-05T23:26:29.336Z,34.00
2022-11-05T23:28:56.043Z,30.20
2022-11-05T23:31:22.494Z,31.00
2022-11-05T23:33:49.443Z,32.80
2022-11-05T23:36:15.981Z,36.80
2022-11-05T23:38:42.734Z,39.80
2022-11-05T23:41:09.260Z,40.60
2022-11-05T23:43:35.801Z,38.80
2022-11-05T23:46:02.234Z,39.70
2022-11-05T23:48:37.235Z,43.60
2022-11-05T23:51:10.587Z,36.40
2022-11-05T23:53:39.773Z,36.60
2022-11-05T23:56:11.177Z,44.50
